createdAt,value
2018-07-11T06:28:09.730Z,65
2018-07-11T06:31:09.650Z,67
2018-07-11T06:34:09.655Z,65
2018-07-11T06:37:09.653Z,65
2018-07-11T06:40:09.673Z,62
2018-07-11T06:43:09.862Z,52
2018-07-11T06:46:09.684Z,48
2018-07-11T06:49:09.820Z,40
2018-07-11T06:52:09.806Z,36
2018-07-11T06:55:09.753Z,37
2018-07-11T06:58:09.783Z,37
2018-07-11T07:01:09.783Z,44
2018-07-11T07:04:09.812Z,38
2018-07-11T07:07:09.829Z,35
2018-07-11T07:10:09.831Z,42
2018-07-11T07:13:09.880Z,46
2018-07-11T07:16:09.879Z,47
2018-07-11T07:19:09.876Z,52
2018-07-11T07:22:09.882Z,52
2018-07-11T07:25:10.313Z,51
2018-07-11T07:28:09.923Z,49
2018-07-11T07:31:09.922Z,48
2018-07-11T07:34:10.054Z,51
2018-07-11T07:37:09.950Z,47
2018-07-11T07:40:09.982Z,38
2018-07-11T07:43:10.011Z,34
2018-07-11T07:46:10.045Z,31
2018-07-11T07:49:10.048Z,28
2018-07-11T07:52:10.069Z,27
2018-07-11T07:55:10.080Z,30
2018-07-11T07:58:10.152Z,27
2018-07-11T08:01:10.148Z,25
2018-07-11T08:04:10.169Z,27
2018-07-11T08:07:10.185Z,30
2018-07-11T08:10:10.225Z,29
2018-07-11T08:13:10.246Z,30
2018-07-11T08:16:10.285Z,23
2018-07-11T08:22:10.321Z,30
2018-07-11T08:25:10.352Z,27
2018-07-11T08:28:10.491Z,29
2018-07-11T08:31:10.556Z,24
2018-07-11T08:34:10.564Z,26
2018-07-11T08:37:10.451Z,20
2018-07-11T08:40:10.602Z,20
2018-07-11T08:43:10.528Z,28
2018-07-11T08:46:10.710Z,31
2018-07-11T08:49:10.607Z,30
2018-07-11T08:52:10.609Z,39
2018-07-11T08:55:10.795Z,36
2018-07-11T08:58:10.663Z,29
2018-07-11T09:01:10.681Z,37
2018-07-11T09:04:10.705Z,38
2018-07-11T09:07:10.716Z,30
2018-07-11T09:10:11.158Z,28
2018-07-11T09:13:10.763Z,35
2018-07-11T09:16:10.896Z,43
2018-07-11T09:36:08.489Z,46
2018-07-11T09:39:08.459Z,45
2018-07-11T09:42:08.484Z,44
2018-07-11T09:45:08.923Z,43
2018-07-11T09:48:08.531Z,42
2018-07-11T09:51:08.583Z,44
2018-07-11T09:54:08.542Z,43
2018-07-11T09:57:08.549Z,43
2018-07-11T10:00:08.580Z,41
2018-07-11T10:03:08.599Z,40
2018-07-11T10:06:08.632Z,40
2018-07-11T10:09:08.651Z,39
2018-07-11T10:12:08.766Z,38
2018-07-11T10:15:08.665Z,39
2018-07-11T10:18:08.694Z,43
2018-07-11T10:21:08.741Z,44
2018-07-11T10:24:08.718Z,44
2018-07-11T10:27:08.734Z,45
2018-07-11T10:30:08.740Z,44
2018-07-11T10:33:08.758Z,44
2018-07-11T10:36:08.789Z,46
2018-07-11T10:39:09.227Z,45
2018-07-11T10:42:08.908Z,42
2018-07-11T10:45:08.809Z,41
2018-07-11T10:48:08.831Z,41
2018-07-11T10:51:08.858Z,44
2018-07-11T10:54:08.963Z,44
2018-07-11T10:57:08.889Z,45
2018-07-11T11:00:08.889Z,45
2018-07-11T11:03:08.900Z,45
2018-07-11T11:35:17.124Z,47
2018-07-11T11:41:16.824Z,45
2018-07-11T11:44:16.723Z,43
2018-07-11T11:47:16.742Z,40
2018-07-11T11:50:16.746Z,37
2018-07-11T11:53:16.784Z,35
2018-07-11T11:56:16.930Z,36
2018-07-11T11:59:16.949Z,36
2018-07-11T12:02:16.921Z,36
2018-07-11T12:05:16.857Z,33
2018-07-11T12:08:16.907Z,31
2018-07-11T12:11:16.916Z,21
2018-07-11T12:14:17.072Z,19
2018-07-11T12:17:16.996Z,27
2018-07-11T12:20:17.019Z,30
2018-07-11T12:26:17.078Z,33
2018-07-11T12:29:17.087Z,37
2018-07-11T12:32:17.099Z,39
2018-07-11T12:35:17.102Z,40
2018-07-11T12:38:17.142Z,41
2018-07-11T12:41:17.191Z,41
2018-07-11T12:44:17.165Z,41
2018-07-11T12:47:17.162Z,41
2018-07-11T12:50:17.193Z,42
2018-07-11T12:53:17.183Z,43
2018-07-11T12:56:17.245Z,43
2018-07-11T12:59:17.227Z,43
2018-07-11T13:02:17.235Z,46
2018-07-11T13:05:17.368Z,47
2018-07-11T13:08:17.264Z,47
2018-07-11T13:11:17.711Z,46
2018-07-11T13:14:17.306Z,45
2018-07-11T13:17:17.304Z,46
2018-07-11T13:20:17.324Z,43
2018-07-11T13:23:17.470Z,43
2018-07-11T13:26:17.363Z,43
2018-07-11T13:29:17.385Z,42
2018-07-11T13:32:17.387Z,41
2018-07-11T13:35:17.807Z,41
2018-07-11T13:41:17.435Z,39
2018-07-11T13:44:17.461Z,39
2018-07-11T13:47:17.500Z,38
2018-07-11T13:50:17.514Z,37
2018-07-11T13:53:17.643Z,37
2018-07-11T13:56:17.529Z,37
2018-07-11T13:59:17.581Z,36
2018-07-11T14:02:17.569Z,37
2018-07-11T14:05:17.596Z,35
2018-07-11T14:08:17.625Z,34
2018-07-11T14:11:17.660Z,36
2018-07-11T14:14:17.677Z,36
2018-07-11T14:17:17.669Z,36
2018-07-11T14:20:17.742Z,40
2018-07-11T14:23:17.718Z,41
2018-07-11T14:26:17.726Z,39
2018-07-11T14:29:17.774Z,39
2018-07-11T14:32:17.779Z,40
2018-07-11T14:35:17.774Z,41
2018-07-11T14:38:17.797Z,41
2018-07-11T14:41:17.997Z,41
2018-07-11T14:44:17.883Z,43
2018-07-11T14:47:17.843Z,43
2018-07-11T14:50:17.853Z,42
2018-07-11T14:53:17.857Z,42
2018-07-11T15:18:04.449Z,42
2018-07-11T15:21:04.562Z,41
2018-07-11T15:24:04.454Z,39
2018-07-11T15:27:04.709Z,40
2018-07-11T15:30:04.504Z,40
2018-07-11T15:33:04.623Z,40
2018-07-11T16:06:53.836Z,42
2018-07-11T16:09:53.950Z,42
2018-07-11T16:51:25.877Z,42
